sensor_id;sensor_type;location;lat;lon;timestamp;P1;durP1;ratioP1;P2;durP2;ratioP2
25419;SDS011;13354;48.174;11.566;2024-01-11T00:00:13;57.17;;;23.33;;
25419;SDS011;13354;48.174;11.566;2024-01-11T00:02:39;52.10;;;21.67;;
25419;SDS011;13354;48.174;11.566;2024-01-11T00:05:04;58.20;;;24.70;;
25419;SDS011;13354;48.174;11.566;2024-01-11T00:07:31;58.78;;;24.05;;
25419;SDS011;13354;48.174;11.566;2024-01-11T00:09:56;64.80;;;25.10;;
25419;SDS011;13354;48.174;11.566;2024-01-11T00:12:22;56.95;;;24.73;;
25419;SDS011;13354;48.174;11.566;2024-01-11T00:14:47;56.20;;;23.77;;
25419;SDS011;13354;48.174;11.566;2024-01-11T00:17:12;57.85;;;24.85;;
25419;SDS011;13354;48.174;11.566;2024-01-11T00:19:38;55.83;;;23.73;;
25419;SDS011;13354;48.174;11.566;2024-01-11T00:22:03;53.83;;;22.27;;
25419;SDS011;13354;48.174;11.566;2024-01-11T00:24:29;55.22;;;22.27;;
25419;SDS011;13354;48.174;11.566;2024-01-11T00:26:54;52.88;;;21.27;;
25419;SDS011;13354;48.174;11.566;2024-01-11T00:29:19;47.40;;;21.73;;
25419;SDS011;13354;48.174;11.566;2024-01-11T00:31:45;53.70;;;23.38;;
25419;SDS011;13354;48.174;11.566;2024-01-11T00:34:10;50.13;;;21.17;;
25419;SDS011;13354;48.174;11.566;2024-01-11T00:36:35;54.97;;;23.75;;
25419;SDS011;13354;48.174;11.566;2024-01-11T00:39:01;57.30;;;24.08;;
25419;SDS011;13354;48.174;11.566;2024-01-11T00:41:27;57.42;;;23.75;;
25419;SDS011;13354;48.174;11.566;2024-01-11T00:43:52;57.70;;;24.52;;
25419;SDS011;13354;48.174;11.566;2024-01-11T00:46:18;62.53;;;25.13;;
25419;SDS011;13354;48.174;11.566;2024-01-11T00:48:44;67.72;;;26.35;;
25419;SDS011;13354;48.174;11.566;2024-01-11T00:51:09;63.72;;;24.88;;
25419;SDS011;13354;48.174;11.566;2024-01-11T00:53:35;62.03;;;25.70;;
25419;SDS011;13354;48.174;11.566;2024-01-11T00:56:00;62.22;;;25.00;;
25419;SDS011;13354;48.174;11.566;2024-01-11T00:58:26;61.70;;;26.20;;
25419;SDS011;13354;48.174;11.566;2024-01-11T01:00:51;64.75;;;24.75;;
25419;SDS011;13354;48.174;11.566;2024-01-11T01:03:20;70.63;;;27.45;;
25419;SDS011;13354;48.174;11.566;2024-01-11T01:05:46;67.25;;;28.23;;
25419;SDS011;13354;48.174;11.566;2024-01-11T01:08:12;67.53;;;27.02;;
25419;SDS011;13354;48.174;11.566;2024-01-11T01:10:37;64.28;;;25.85;;
25419;SDS011;13354;48.174;11.566;2024-01-11T01:13:03;69.82;;;26.60;;
25419;SDS011;13354;48.174;11.566;2024-01-11T01:15:29;63.78;;;26.13;;
25419;SDS011;13354;48.174;11.566;2024-01-11T01:17:54;62.85;;;25.30;;
25419;SDS011;13354;48.174;11.566;2024-01-11T01:20:19;63.05;;;25.40;;
25419;SDS011;13354;48.174;11.566;2024-01-11T01:22:45;63.53;;;25.08;;
25419;SDS011;13354;48.174;11.566;2024-01-11T01:25:10;63.90;;;26.58;;
25419;SDS011;13354;48.174;11.566;2024-01-11T01:27:36;53.33;;;22.90;;
25419;SDS011;13354;48.174;11.566;2024-01-11T01:30:01;56.05;;;23.25;;
25419;SDS011;13354;48.174;11.566;2024-01-11T01:32:27;56.33;;;23.23;;
25419;SDS011;13354;48.174;11.566;2024-01-11T01:34:52;53.08;;;23.02;;
25419;SDS011;13354;48.174;11.566;2024-01-11T01:37:17;51.25;;;23.35;;
25419;SDS011;13354;48.174;11.566;2024-01-11T01:39:43;60.28;;;25.10;;
25419;SDS011;13354;48.174;11.566;2024-01-11T01:42:08;62.00;;;24.92;;
25419;SDS011;13354;48.174;11.566;2024-01-11T01:44:33;58.95;;;23.10;;
25419;SDS011;13354;48.174;11.566;2024-01-11T01:46:59;54.75;;;23.52;;
25419;SDS011;13354;48.174;11.566;2024-01-11T01:49:25;57.42;;;25.30;;
25419;SDS011;13354;48.174;11.566;2024-01-11T01:51:51;54.10;;;22.65;;
25419;SDS011;13354;48.174;11.566;2024-01-11T01:54:18;50.33;;;22.70;;
25419;SDS011;13354;48.174;11.566;2024-01-11T01:56:44;53.13;;;22.25;;
25419;SDS011;13354;48.174;11.566;2024-01-11T01:59:10;52.42;;;22.30;;
25419;SDS011;13354;48.174;11.566;2024-01-11T02:01:35;56.85;;;24.33;;
25419;SDS011;13354;48.174;11.566;2024-01-11T02:04:01;53.10;;;22.10;;
25419;SDS011;13354;48.174;11.566;2024-01-11T02:06:27;51.08;;;22.63;;
25419;SDS011;13354;48.174;11.566;2024-01-11T02:08:55;53.00;;;21.70;;
25419;SDS011;13354;48.174;11.566;2024-01-11T02:11:21;47.47;;;21.98;;
25419;SDS011;13354;48.174;11.566;2024-01-11T02:13:48;50.80;;;22.50;;
25419;SDS011;13354;48.174;11.566;2024-01-11T02:16:15;45.22;;;21.60;;
25419;SDS011;13354;48.174;11.566;2024-01-11T02:18:41;50.75;;;22.38;;
25419;SDS011;13354;48.174;11.566;2024-01-11T02:21:06;49.42;;;22.67;;
25419;SDS011;13354;48.174;11.566;2024-01-11T02:23:36;46.70;;;21.27;;
25419;SDS011;13354;48.174;11.566;2024-01-11T02:26:10;54.38;;;22.60;;
25419;SDS011;13354;48.174;11.566;2024-01-11T02:28:37;54.55;;;24.13;;
25419;SDS011;13354;48.174;11.566;2024-01-11T02:31:02;54.35;;;22.75;;
25419;SDS011;13354;48.174;11.566;2024-01-11T02:33:28;51.45;;;22.35;;
25419;SDS011;13354;48.174;11.566;2024-01-11T02:35:53;51.83;;;23.67;;
25419;SDS011;13354;48.174;11.566;2024-01-11T02:38:18;51.72;;;21.88;;
25419;SDS011;13354;48.174;11.566;2024-01-11T02:40:44;49.85;;;21.67;;
25419;SDS011;13354;48.174;11.566;2024-01-11T02:43:11;44.85;;;20.25;;
25419;SDS011;13354;48.174;11.566;2024-01-11T02:45:37;44.03;;;21.17;;
25419;SDS011;13354;48.174;11.566;2024-01-11T02:48:03;45.40;;;20.90;;
25419;SDS011;13354;48.174;11.566;2024-01-11T02:50:28;41.05;;;19.33;;
25419;SDS011;13354;48.174;11.566;2024-01-11T02:52:53;44.78;;;20.30;;
25419;SDS011;13354;48.174;11.566;2024-01-11T02:55:19;44.17;;;19.63;;
25419;SDS011;13354;48.174;11.566;2024-01-11T02:57:44;42.97;;;20.08;;
25419;SDS011;13354;48.174;11.566;2024-01-11T03:00:10;36.17;;;17.30;;
25419;SDS011;13354;48.174;11.566;2024-01-11T03:02:37;38.80;;;17.58;;
25419;SDS011;13354;48.174;11.566;2024-01-11T03:05:03;35.92;;;16.60;;
25419;SDS011;13354;48.174;11.566;2024-01-11T03:07:28;40.88;;;19.10;;
25419;SDS011;13354;48.174;11.566;2024-01-11T03:09:55;43.17;;;18.70;;
25419;SDS011;13354;48.174;11.566;2024-01-11T03:12:21;46.03;;;21.00;;
25419;SDS011;13354;48.174;11.566;2024-01-11T03:14:47;41.10;;;19.65;;
25419;SDS011;13354;48.174;11.566;2024-01-11T03:17:12;43.20;;;19.73;;
25419;SDS011;13354;48.174;11.566;2024-01-11T03:19:41;43.47;;;20.55;;
25419;SDS011;13354;48.174;11.566;2024-01-11T03:22:06;43.63;;;19.77;;
25419;SDS011;13354;48.174;11.566;2024-01-11T03:24:32;41.63;;;20.30;;
25419;SDS011;13354;48.174;11.566;2024-01-11T03:26:57;45.20;;;21.63;;
25419;SDS011;13354;48.174;11.566;2024-01-11T03:29:23;47.78;;;21.90;;
25419;SDS011;13354;48.174;11.566;2024-01-11T03:31:48;44.42;;;20.60;;
25419;SDS011;13354;48.174;11.566;2024-01-11T03:34:13;50.10;;;21.75;;
25419;SDS011;13354;48.174;11.566;2024-01-11T03:36:39;42.00;;;21.77;;
25419;SDS011;13354;48.174;11.566;2024-01-11T03:39:05;48.33;;;22.85;;
25419;SDS011;13354;48.174;11.566;2024-01-11T03:41:31;49.67;;;21.67;;
25419;SDS011;13354;48.174;11.566;2024-01-11T03:43:56;50.55;;;22.88;;
25419;SDS011;13354;48.174;11.566;2024-01-11T03:46:21;43.35;;;21.63;;
25419;SDS011;13354;48.174;11.566;2024-01-11T03:48:47;44.20;;;21.83;;
25419;SDS011;13354;48.174;11.566;2024-01-11T03:51:13;44.20;;;20.52;;
25419;SDS011;13354;48.174;11.566;2024-01-11T03:53:38;45.78;;;21.08;;
25419;SDS011;13354;48.174;11.566;2024-01-11T03:56:03;42.35;;;20.50;;
25419;SDS011;13354;48.174;11.566;2024-01-11T03:58:29;44.13;;;20.52;;
25419;SDS011;13354;48.174;11.566;2024-01-11T04:00:55;42.75;;;19.77;;
25419;SDS011;13354;48.174;11.566;2024-01-11T04:03:20;42.17;;;19.77;;
25419;SDS011;13354;48.174;11.566;2024-01-11T04:05:45;43.55;;;19.70;;
25419;SDS011;13354;48.174;11.566;2024-01-11T04:08:11;45.55;;;22.13;;
25419;SDS011;13354;48.174;11.566;2024-01-11T04:10:36;39.67;;;20.02;;
25419;SDS011;13354;48.174;11.566;2024-01-11T04:13:02;43.47;;;20.85;;
25419;SDS011;13354;48.174;11.566;2024-01-11T04:15:27;41.03;;;20.02;;
25419;SDS011;13354;48.174;11.566;2024-01-11T04:17:52;41.58;;;20.92;;
25419;SDS011;13354;48.174;11.566;2024-01-11T04:20:18;40.20;;;21.27;;
25419;SDS011;13354;48.174;11.566;2024-01-11T04:22:43;41.38;;;20.80;;
25419;SDS011;13354;48.174;11.566;2024-01-11T04:25:08;43.15;;;22.30;;
25419;SDS011;13354;48.174;11.566;2024-01-11T04:27:34;47.28;;;22.13;;
25419;SDS011;13354;48.174;11.566;2024-01-11T04:29:59;43.80;;;21.35;;
25419;SDS011;13354;48.174;11.566;2024-01-11T04:32:25;43.28;;;22.05;;
25419;SDS011;13354;48.174;11.566;2024-01-11T04:34:50;42.90;;;22.05;;
25419;SDS011;13354;48.174;11.566;2024-01-11T04:37:15;43.92;;;21.52;;
25419;SDS011;13354;48.174;11.566;2024-01-11T04:39:41;42.10;;;21.05;;
25419;SDS011;13354;48.174;11.566;2024-01-11T04:42:06;43.22;;;20.67;;
25419;SDS011;13354;48.174;11.566;2024-01-11T04:44:32;44.78;;;21.58;;
25419;SDS011;13354;48.174;11.566;2024-01-11T04:46:57;43.38;;;19.95;;
25419;SDS011;13354;48.174;11.566;2024-01-11T04:49:22;41.53;;;19.52;;
25419;SDS011;13354;48.174;11.566;2024-01-11T04:51:48;40.08;;;19.88;;
25419;SDS011;13354;48.174;11.566;2024-01-11T04:54:13;46.90;;;21.42;;
25419;SDS011;13354;48.174;11.566;2024-01-11T04:56:38;51.05;;;23.55;;
25419;SDS011;13354;48.174;11.566;2024-01-11T04:59:04;46.67;;;20.75;;
25419;SDS011;13354;48.174;11.566;2024-01-11T05:01:29;49.20;;;22.42;;
25419;SDS011;13354;48.174;11.566;2024-01-11T05:03:55;49.45;;;22.42;;
25419;SDS011;13354;48.174;11.566;2024-01-11T05:06:21;55.05;;;25.35;;
25419;SDS011;13354;48.174;11.566;2024-01-11T05:08:47;60.05;;;25.75;;
25419;SDS011;13354;48.174;11.566;2024-01-11T05:11:18;61.20;;;26.70;;
25419;SDS011;13354;48.174;11.566;2024-01-11T05:13:49;62.38;;;27.55;;
25419;SDS011;13354;48.174;11.566;2024-01-11T05:16:21;63.50;;;27.85;;
25419;SDS011;13354;48.174;11.566;2024-01-11T05:18:54;60.05;;;27.10;;
25419;SDS011;13354;48.174;11.566;2024-01-11T05:21:21;62.72;;;27.02;;
25419;SDS011;13354;48.174;11.566;2024-01-11T05:23:47;64.70;;;27.83;;
25419;SDS011;13354;48.174;11.566;2024-01-11T05:26:14;62.28;;;27.48;;
25419;SDS011;13354;48.174;11.566;2024-01-11T05:28:40;67.95;;;29.42;;
25419;SDS011;13354;48.174;11.566;2024-01-11T05:31:06;66.22;;;28.77;;
25419;SDS011;13354;48.174;11.566;2024-01-11T05:33:33;66.70;;;29.08;;
25419;SDS011;13354;48.174;11.566;2024-01-11T05:35:58;63.03;;;28.17;;
25419;SDS011;13354;48.174;11.566;2024-01-11T05:38:24;65.20;;;28.27;;
25419;SDS011;13354;48.174;11.566;2024-01-11T05:40:49;67.38;;;30.38;;
25419;SDS011;13354;48.174;11.566;2024-01-11T05:43:14;62.50;;;27.30;;
25419;SDS011;13354;48.174;11.566;2024-01-11T05:45:40;63.60;;;26.38;;
25419;SDS011;13354;48.174;11.566;2024-01-11T05:48:06;60.70;;;27.23;;
25419;SDS011;13354;48.174;11.566;2024-01-11T05:50:31;58.28;;;26.98;;
25419;SDS011;13354;48.174;11.566;2024-01-11T05:52:57;57.83;;;25.90;;
25419;SDS011;13354;48.174;11.566;2024-01-11T05:55:23;62.25;;;27.35;;
25419;SDS011;13354;48.174;11.566;2024-01-11T05:57:48;64.32;;;27.98;;
25419;SDS011;13354;48.174;11.566;2024-01-11T06:00:14;61.10;;;26.17;;
25419;SDS011;13354;48.174;11.566;2024-01-11T06:02:39;51.75;;;24.65;;
25419;SDS011;13354;48.174;11.566;2024-01-11T06:05:07;52.63;;;23.65;;
25419;SDS011;13354;48.174;11.566;2024-01-11T06:07:34;52.47;;;25.55;;
25419;SDS011;13354;48.174;11.566;2024-01-11T06:09:59;51.42;;;24.27;;
25419;SDS011;13354;48.174;11.566;2024-01-11T06:12:26;51.28;;;24.33;;
25419;SDS011;13354;48.174;11.566;2024-01-11T06:14:51;59.75;;;25.75;;
25419;SDS011;13354;48.174;11.566;2024-01-11T06:17:17;55.30;;;24.17;;
25419;SDS011;13354;48.174;11.566;2024-01-11T06:19:42;55.92;;;25.17;;
25419;SDS011;13354;48.174;11.566;2024-01-11T06:22:07;52.50;;;23.48;;
25419;SDS011;13354;48.174;11.566;2024-01-11T06:24:33;55.33;;;23.08;;
25419;SDS011;13354;48.174;11.566;2024-01-11T06:26:58;53.15;;;25.10;;
25419;SDS011;13354;48.174;11.566;2024-01-11T06:29:24;51.72;;;25.25;;
25419;SDS011;13354;48.174;11.566;2024-01-11T06:31:49;54.65;;;25.33;;
25419;SDS011;13354;48.174;11.566;2024-01-11T06:34:15;59.08;;;25.23;;
25419;SDS011;13354;48.174;11.566;2024-01-11T06:36:40;52.60;;;23.55;;
25419;SDS011;13354;48.174;11.566;2024-01-11T06:39:05;52.33;;;23.50;;
25419;SDS011;13354;48.174;11.566;2024-01-11T06:41:31;52.60;;;25.38;;
25419;SDS011;13354;48.174;11.566;2024-01-11T06:43:56;55.60;;;24.45;;
25419;SDS011;13354;48.174;11.566;2024-01-11T06:46:21;56.95;;;26.10;;
25419;SDS011;13354;48.174;11.566;2024-01-11T06:48:48;58.55;;;25.20;;
25419;SDS011;13354;48.174;11.566;2024-01-11T06:51:14;57.25;;;25.52;;
25419;SDS011;13354;48.174;11.566;2024-01-11T06:53:40;59.17;;;24.92;;
25419;SDS011;13354;48.174;11.566;2024-01-11T06:56:16;61.42;;;24.98;;
25419;SDS011;13354;48.174;11.566;2024-01-11T06:58:43;64.30;;;26.40;;
25419;SDS011;13354;48.174;11.566;2024-01-11T07:01:09;63.42;;;25.27;;
25419;SDS011;13354;48.174;11.566;2024-01-11T07:03:34;63.88;;;27.02;;
25419;SDS011;13354;48.174;11.566;2024-01-11T07:06:00;59.28;;;26.10;;
25419;SDS011;13354;48.174;11.566;2024-01-11T07:08:25;60.90;;;27.00;;
25419;SDS011;13354;48.174;11.566;2024-01-11T07:10:51;58.47;;;26.90;;
25419;SDS011;13354;48.174;11.566;2024-01-11T07:13:16;61.38;;;26.75;;
25419;SDS011;13354;48.174;11.566;2024-01-11T07:15:42;65.78;;;27.13;;
25419;SDS011;13354;48.174;11.566;2024-01-11T07:18:08;60.28;;;25.35;;
25419;SDS011;13354;48.174;11.566;2024-01-11T07:20:34;50.08;;;24.40;;
25419;SDS011;13354;48.174;11.566;2024-01-11T07:23:00;53.45;;;24.42;;
25419;SDS011;13354;48.174;11.566;2024-01-11T07:25:25;51.55;;;23.40;;
25419;SDS011;13354;48.174;11.566;2024-01-11T07:27:50;55.20;;;23.90;;
25419;SDS011;13354;48.174;11.566;2024-01-11T07:30:16;51.50;;;22.92;;
25419;SDS011;13354;48.174;11.566;2024-01-11T07:32:43;47.38;;;21.92;;
25419;SDS011;13354;48.174;11.566;2024-01-11T07:35:09;52.35;;;22.77;;
25419;SDS011;13354;48.174;11.566;2024-01-11T07:37:36;49.67;;;22.88;;
25419;SDS011;13354;48.174;11.566;2024-01-11T07:40:01;60.17;;;24.52;;
25419;SDS011;13354;48.174;11.566;2024-01-11T07:42:28;48.08;;;22.77;;
25419;SDS011;13354;48.174;11.566;2024-01-11T07:44:54;48.33;;;22.88;;
25419;SDS011;13354;48.174;11.566;2024-01-11T07:47:20;45.60;;;22.77;;
25419;SDS011;13354;48.174;11.566;2024-01-11T07:49:45;53.90;;;23.55;;
25419;SDS011;13354;48.174;11.566;2024-01-11T07:52:10;50.67;;;23.02;;
25419;SDS011;13354;48.174;11.566;2024-01-11T07:54:36;46.13;;;23.23;;
25419;SDS011;13354;48.174;11.566;2024-01-11T07:57:01;48.63;;;23.95;;
25419;SDS011;13354;48.174;11.566;2024-01-11T07:59:28;51.05;;;23.27;;
25419;SDS011;13354;48.174;11.566;2024-01-11T08:01:57;48.58;;;23.73;;
25419;SDS011;13354;48.174;11.566;2024-01-11T08:04:22;49.72;;;24.17;;
25419;SDS011;13354;48.174;11.566;2024-01-11T08:06:48;49.83;;;23.10;;
25419;SDS011;13354;48.174;11.566;2024-01-11T08:09:13;41.28;;;20.75;;
25419;SDS011;13354;48.174;11.566;2024-01-11T08:11:39;42.13;;;19.98;;
25419;SDS011;13354;48.174;11.566;2024-01-11T08:14:06;42.08;;;19.85;;
25419;SDS011;13354;48.174;11.566;2024-01-11T08:16:32;39.65;;;20.23;;
25419;SDS011;13354;48.174;11.566;2024-01-11T08:18:57;42.70;;;21.40;;
25419;SDS011;13354;48.174;11.566;2024-01-11T08:21:23;35.17;;;18.65;;
25419;SDS011;13354;48.174;11.566;2024-01-11T08:23:49;41.42;;;20.45;;
25419;SDS011;13354;48.174;11.566;2024-01-11T08:26:15;40.90;;;20.48;;
25419;SDS011;13354;48.174;11.566;2024-01-11T08:28:41;38.42;;;18.83;;
25419;SDS011;13354;48.174;11.566;2024-01-11T08:31:07;44.55;;;19.38;;
25419;SDS011;13354;48.174;11.566;2024-01-11T08:33:32;48.55;;;22.23;;
25419;SDS011;13354;48.174;11.566;2024-01-11T08:35:58;39.75;;;20.20;;
25419;SDS011;13354;48.174;11.566;2024-01-11T08:38:23;39.15;;;20.50;;
25419;SDS011;13354;48.174;11.566;2024-01-11T08:40:49;42.60;;;20.75;;
25419;SDS011;13354;48.174;11.566;2024-01-11T08:43:15;40.25;;;20.08;;
25419;SDS011;13354;48.174;11.566;2024-01-11T08:45:40;38.88;;;20.30;;
25419;SDS011;13354;48.174;11.566;2024-01-11T08:48:08;41.58;;;20.83;;
25419;SDS011;13354;48.174;11.566;2024-01-11T08:50:34;36.67;;;20.40;;
25419;SDS011;13354;48.174;11.566;2024-01-11T08:53:00;41.85;;;21.00;;
25419;SDS011;13354;48.174;11.566;2024-01-11T08:55:25;43.33;;;22.80;;
25419;SDS011;13354;48.174;11.566;2024-01-11T08:57:51;46.20;;;21.52;;
25419;SDS011;13354;48.174;11.566;2024-01-11T09:00:17;46.60;;;23.63;;
25419;SDS011;13354;48.174;11.566;2024-01-11T09:02:43;50.85;;;25.48;;
25419;SDS011;13354;48.174;11.566;2024-01-11T09:05:09;49.90;;;24.42;;
25419;SDS011;13354;48.174;11.566;2024-01-11T09:07:34;59.28;;;26.52;;
25419;SDS011;13354;48.174;11.566;2024-01-11T09:09:59;62.80;;;28.88;;
25419;SDS011;13354;48.174;11.566;2024-01-11T09:12:25;73.45;;;31.27;;
25419;SDS011;13354;48.174;11.566;2024-01-11T09:14:50;66.90;;;30.77;;
25419;SDS011;13354;48.174;11.566;2024-01-11T09:17:15;73.50;;;31.77;;
25419;SDS011;13354;48.174;11.566;2024-01-11T09:19:41;65.70;;;29.30;;
25419;SDS011;13354;48.174;11.566;2024-01-11T09:22:06;66.97;;;30.15;;
25419;SDS011;13354;48.174;11.566;2024-01-11T09:24:35;69.53;;;30.45;;
25419;SDS011;13354;48.174;11.566;2024-01-11T09:27:00;68.13;;;29.77;;
25419;SDS011;13354;48.174;11.566;2024-01-11T09:29:26;72.13;;;30.40;;
25419;SDS011;13354;48.174;11.566;2024-01-11T09:31:52;65.75;;;29.73;;
25419;SDS011;13354;48.174;11.566;2024-01-11T09:34:18;66.47;;;29.73;;
25419;SDS011;13354;48.174;11.566;2024-01-11T09:36:43;63.35;;;29.08;;
25419;SDS011;13354;48.174;11.566;2024-01-11T09:39:10;66.35;;;29.60;;
25419;SDS011;13354;48.174;11.566;2024-01-11T09:41:38;72.45;;;30.92;;
25419;SDS011;13354;48.174;11.566;2024-01-11T09:44:08;62.13;;;29.35;;
25419;SDS011;13354;48.174;11.566;2024-01-11T09:46:34;63.05;;;29.42;;
25419;SDS011;13354;48.174;11.566;2024-01-11T09:48:59;62.95;;;29.13;;
25419;SDS011;13354;48.174;11.566;2024-01-11T09:51:28;77.18;;;35.42;;
25419;SDS011;13354;48.174;11.566;2024-01-11T09:53:54;63.15;;;29.77;;
25419;SDS011;13354;48.174;11.566;2024-01-11T09:56:23;69.68;;;30.60;;
25419;SDS011;13354;48.174;11.566;2024-01-11T09:58:52;69.07;;;30.92;;
25419;SDS011;13354;48.174;11.566;2024-01-11T10:01:17;67.13;;;30.58;;
25419;SDS011;13354;48.174;11.566;2024-01-11T10:03:44;67.13;;;30.60;;
25419;SDS011;13354;48.174;11.566;2024-01-11T10:06:11;65.20;;;29.58;;
25419;SDS011;13354;48.174;11.566;2024-01-11T10:08:37;68.63;;;31.00;;
25419;SDS011;13354;48.174;11.566;2024-01-11T10:11:03;68.40;;;30.33;;
25419;SDS011;13354;48.174;11.566;2024-01-11T10:13:29;71.10;;;32.15;;
25419;SDS011;13354;48.174;11.566;2024-01-11T10:16:08;68.60;;;31.40;;
25419;SDS011;13354;48.174;11.566;2024-01-11T10:18:35;63.85;;;29.55;;
25419;SDS011;13354;48.174;11.566;2024-01-11T10:21:01;64.90;;;30.20;;
25419;SDS011;13354;48.174;11.566;2024-01-11T10:23:27;65.60;;;30.85;;
25419;SDS011;13354;48.174;11.566;2024-01-11T10:25:55;68.53;;;30.10;;
25419;SDS011;13354;48.174;11.566;2024-01-11T10:28:22;75.93;;;31.05;;
25419;SDS011;13354;48.174;11.566;2024-01-11T10:30:48;79.22;;;32.28;;
25419;SDS011;13354;48.174;11.566;2024-01-11T10:33:18;68.40;;;31.80;;
25419;SDS011;13354;48.174;11.566;2024-01-11T10:35:45;68.38;;;30.02;;
25419;SDS011;13354;48.174;11.566;2024-01-11T10:38:11;65.93;;;29.13;;
25419;SDS011;13354;48.174;11.566;2024-01-11T10:40:37;63.50;;;28.27;;
25419;SDS011;13354;48.174;11.566;2024-01-11T10:43:02;75.70;;;30.52;;
25419;SDS011;13354;48.174;11.566;2024-01-11T10:45:30;62.40;;;28.90;;
25419;SDS011;13354;48.174;11.566;2024-01-11T10:48:03;58.67;;;24.30;;
25419;SDS011;13354;48.174;11.566;2024-01-11T10:50:34;78.72;;;29.92;;
25419;SDS011;13354;48.174;11.566;2024-01-11T10:55:29;65.07;;;30.00;;
25419;SDS011;13354;48.174;11.566;2024-01-11T10:57:56;71.13;;;30.15;;
25419;SDS011;13354;48.174;11.566;2024-01-11T11:00:24;69.85;;;30.73;;
25419;SDS011;13354;48.174;11.566;2024-01-11T11:02:50;67.35;;;29.45;;
25419;SDS011;13354;48.174;11.566;2024-01-11T11:05:18;64.97;;;29.00;;
25419;SDS011;13354;48.174;11.566;2024-01-11T11:07:46;66.75;;;28.65;;
25419;SDS011;13354;48.174;11.566;2024-01-11T11:10:14;68.40;;;30.13;;
25419;SDS011;13354;48.174;11.566;2024-01-11T11:12:41;69.13;;;30.38;;
25419;SDS011;13354;48.174;11.566;2024-01-11T11:15:09;70.20;;;31.67;;
25419;SDS011;13354;48.174;11.566;2024-01-11T11:17:36;66.28;;;29.35;;
25419;SDS011;13354;48.174;11.566;2024-01-11T11:20:02;68.63;;;30.15;;
25419;SDS011;13354;48.174;11.566;2024-01-11T11:22:27;65.93;;;29.83;;
25419;SDS011;13354;48.174;11.566;2024-01-11T11:25:11;64.93;;;29.77;;
25419;SDS011;13354;48.174;11.566;2024-01-11T11:27:49;70.25;;;31.27;;
25419;SDS011;13354;48.174;11.566;2024-01-11T11:30:15;72.13;;;31.52;;
25419;SDS011;13354;48.174;11.566;2024-01-11T11:32:45;72.70;;;31.27;;
25419;SDS011;13354;48.174;11.566;2024-01-11T11:35:10;71.53;;;31.00;;
25419;SDS011;13354;48.174;11.566;2024-01-11T11:37:37;74.10;;;32.17;;
25419;SDS011;13354;48.174;11.566;2024-01-11T11:40:03;77.50;;;33.38;;
25419;SDS011;13354;48.174;11.566;2024-01-11T11:42:35;80.85;;;34.25;;
25419;SDS011;13354;48.174;11.566;2024-01-11T11:45:01;74.60;;;32.85;;
25419;SDS011;13354;48.174;11.566;2024-01-11T11:47:32;70.30;;;31.83;;
25419;SDS011;13354;48.174;11.566;2024-01-11T11:50:06;71.15;;;30.90;;
25419;SDS011;13354;48.174;11.566;2024-01-11T11:52:34;66.65;;;30.33;;
25419;SDS011;13354;48.174;11.566;2024-01-11T11:55:00;74.70;;;32.17;;
25419;SDS011;13354;48.174;11.566;2024-01-11T11:57:27;71.95;;;29.50;;
25419;SDS011;13354;48.174;11.566;2024-01-11T11:59:56;67.88;;;30.55;;
25419;SDS011;13354;48.174;11.566;2024-01-11T12:02:23;75.72;;;30.80;;
25419;SDS011;13354;48.174;11.566;2024-01-11T12:04:50;68.15;;;30.08;;
25419;SDS011;13354;48.174;11.566;2024-01-11T12:07:15;70.82;;;31.40;;
25419;SDS011;13354;48.174;11.566;2024-01-11T12:09:41;73.07;;;31.08;;
25419;SDS011;13354;48.174;11.566;2024-01-11T12:12:07;65.05;;;29.52;;
25419;SDS011;13354;48.174;11.566;2024-01-11T12:14:33;71.18;;;29.05;;
25419;SDS011;13354;48.174;11.566;2024-01-11T12:16:59;66.95;;;29.00;;
25419;SDS011;13354;48.174;11.566;2024-01-11T12:19:25;63.33;;;30.02;;
25419;SDS011;13354;48.174;11.566;2024-01-11T12:21:50;62.22;;;29.73;;
25419;SDS011;13354;48.174;11.566;2024-01-11T12:24:16;66.03;;;29.67;;
25419;SDS011;13354;48.174;11.566;2024-01-11T12:26:42;68.95;;;30.15;;
25419;SDS011;13354;48.174;11.566;2024-01-11T12:29:08;66.13;;;31.13;;
25419;SDS011;13354;48.174;11.566;2024-01-11T12:31:35;63.45;;;28.77;;
25419;SDS011;13354;48.174;11.566;2024-01-11T12:34:01;60.20;;;28.92;;
25419;SDS011;13354;48.174;11.566;2024-01-11T12:36:27;69.13;;;31.85;;
25419;SDS011;13354;48.174;11.566;2024-01-11T12:38:53;64.68;;;28.88;;
25419;SDS011;13354;48.174;11.566;2024-01-11T12:41:19;70.13;;;31.27;;
25419;SDS011;13354;48.174;11.566;2024-01-11T12:43:46;68.63;;;28.77;;
25419;SDS011;13354;48.174;11.566;2024-01-11T12:46:11;63.60;;;30.15;;
25419;SDS011;13354;48.174;11.566;2024-01-11T12:48:37;63.30;;;30.60;;
25419;SDS011;13354;48.174;11.566;2024-01-11T12:51:04;66.35;;;31.15;;
25419;SDS011;13354;48.174;11.566;2024-01-11T12:53:30;68.50;;;32.45;;
25419;SDS011;13354;48.174;11.566;2024-01-11T12:56:05;75.63;;;33.47;;
25419;SDS011;13354;48.174;11.566;2024-01-11T12:58:38;70.80;;;33.28;;
25419;SDS011;13354;48.174;11.566;2024-01-11T13:01:04;74.43;;;34.70;;
25419;SDS011;13354;48.174;11.566;2024-01-11T13:03:32;69.65;;;34.00;;
25419;SDS011;13354;48.174;11.566;2024-01-11T13:05:58;74.45;;;35.72;;
25419;SDS011;13354;48.174;11.566;2024-01-11T13:08:24;76.43;;;36.30;;
25419;SDS011;13354;48.174;11.566;2024-01-11T13:10:50;73.57;;;35.65;;
25419;SDS011;13354;48.174;11.566;2024-01-11T13:13:15;77.78;;;35.05;;
25419;SDS011;13354;48.174;11.566;2024-01-11T13:15:41;74.55;;;35.17;;
25419;SDS011;13354;48.174;11.566;2024-01-11T13:18:06;73.25;;;34.20;;
25419;SDS011;13354;48.174;11.566;2024-01-11T13:20:32;72.75;;;34.17;;
25419;SDS011;13354;48.174;11.566;2024-01-11T13:25:42;120.05;;;53.58;;
25419;SDS011;13354;48.174;11.566;2024-01-11T13:28:08;74.57;;;37.50;;
25419;SDS011;13354;48.174;11.566;2024-01-11T13:30:36;77.43;;;36.35;;
25419;SDS011;13354;48.174;11.566;2024-01-11T13:33:06;76.53;;;34.10;;
25419;SDS011;13354;48.174;11.566;2024-01-11T13:35:33;81.68;;;36.60;;
25419;SDS011;13354;48.174;11.566;2024-01-11T13:37:59;82.80;;;38.15;;
25419;SDS011;13354;48.174;11.566;2024-01-11T13:40:25;83.35;;;36.05;;
25419;SDS011;13354;48.174;11.566;2024-01-11T13:42:53;76.68;;;35.17;;
25419;SDS011;13354;48.174;11.566;2024-01-11T13:45:19;74.72;;;33.70;;
25419;SDS011;13354;48.174;11.566;2024-01-11T13:47:44;77.70;;;36.13;;
25419;SDS011;13354;48.174;11.566;2024-01-11T13:50:10;80.05;;;35.10;;
25419;SDS011;13354;48.174;11.566;2024-01-11T13:52:35;79.85;;;37.75;;
25419;SDS011;13354;48.174;11.566;2024-01-11T13:55:01;86.15;;;39.55;;
25419;SDS011;13354;48.174;11.566;2024-01-11T13:57:26;77.82;;;38.25;;
25419;SDS011;13354;48.174;11.566;2024-01-11T13:59:52;83.78;;;39.30;;
25419;SDS011;13354;48.174;11.566;2024-01-11T14:02:17;79.45;;;37.83;;
25419;SDS011;13354;48.174;11.566;2024-01-11T14:04:42;85.88;;;38.22;;
25419;SDS011;13354;48.174;11.566;2024-01-11T14:07:08;79.15;;;38.50;;